Welcome to the New NWS' Forecast!
Most changes are behind the scenes, but click here for differences you might notice.

Terminal Aerodrome Forecast (TAF)

Issued by National Weather Service (NWS)

                            
036 
FTUS42 KMFL 191500 AAB
TAFMIA
TAF AMD
KMIA 191500Z 1915/2018 13006KT P6SM VCSH SCT025 BKN035 BKN250
     FM191700 13010KT P6SM VCSH SCT035 SCT250
     FM200100 VRB03KT P6SM SCT035
     FM201400 10006KT P6SM SCT035=